sensor_id;sensor_type;location;lat;lon;timestamp;temperature;humidity
76967;DHT22;65904;52.278;20.972;2022-12-10T00:02:05;1.40;86.60
76967;DHT22;65904;52.278;20.972;2022-12-10T00:04:51;1.40;86.60
76967;DHT22;65904;52.278;20.972;2022-12-10T00:07:37;1.40;87.50
76967;DHT22;65904;52.278;20.972;2022-12-10T00:10:23;1.40;86.70
76967;DHT22;65904;52.278;20.972;2022-12-10T00:13:11;1.40;86.80
76967;DHT22;65904;52.278;20.972;2022-12-10T00:15:59;1.40;86.70
76967;DHT22;65904;52.278;20.972;2022-12-10T00:18:45;1.40;86.70
76967;DHT22;65904;52.278;20.972;2022-12-10T00:21:33;1.40;86.60
76967;DHT22;65904;52.278;20.972;2022-12-10T00:24:20;1.40;86.70
76967;DHT22;65904;52.278;20.972;2022-12-10T00:27:05;1.50;86.60
76967;DHT22;65904;52.278;20.972;2022-12-10T00:29:53;1.40;86.50
76967;DHT22;65904;52.278;20.972;2022-12-10T00:32:39;1.40;86.80
76967;DHT22;65904;52.278;20.972;2022-12-10T00:35:26;1.40;86.50
76967;DHT22;65904;52.278;20.972;2022-12-10T00:38:12;1.40;86.70
76967;DHT22;65904;52.278;20.972;2022-12-10T00:40:59;1.40;86.80
76967;DHT22;65904;52.278;20.972;2022-12-10T00:43:45;1.40;86.80
76967;DHT22;65904;52.278;20.972;2022-12-10T00:46:33;1.40;87.50
76967;DHT22;65904;52.278;20.972;2022-12-10T00:49:19;1.40;86.70
76967;DHT22;65904;52.278;20.972;2022-12-10T00:52:08;1.40;86.80
76967;DHT22;65904;52.278;20.972;2022-12-10T00:54:54;1.40;86.80
76967;DHT22;65904;52.278;20.972;2022-12-10T00:57:40;1.40;86.90
76967;DHT22;65904;52.278;20.972;2022-12-10T01:00:26;1.40;86.70
76967;DHT22;65904;52.278;20.972;2022-12-10T01:03:14;1.50;86.80
76967;DHT22;65904;52.278;20.972;2022-12-10T01:06:08;1.50;86.80
76967;DHT22;65904;52.278;20.972;2022-12-10T01:08:56;1.50;86.90
76967;DHT22;65904;52.278;20.972;2022-12-10T01:11:45;1.50;86.70
76967;DHT22;65904;52.278;20.972;2022-12-10T01:14:33;1.50;86.80
76967;DHT22;65904;52.278;20.972;2022-12-10T01:17:19;1.50;86.70
76967;DHT22;65904;52.278;20.972;2022-12-10T01:20:08;1.50;86.70
76967;DHT22;65904;52.278;20.972;2022-12-10T01:22:54;1.40;86.60
76967;DHT22;65904;52.278;20.972;2022-12-10T01:25:41;1.40;86.70
76967;DHT22;65904;52.278;20.972;2022-12-10T01:28:29;1.40;86.80
76967;DHT22;65904;52.278;20.972;2022-12-10T01:31:20;1.40;86.80
76967;DHT22;65904;52.278;20.972;2022-12-10T01:34:09;1.40;86.90
76967;DHT22;65904;52.278;20.972;2022-12-10T01:36:57;1.40;86.90
76967;DHT22;65904;52.278;20.972;2022-12-10T01:39:43;1.40;86.90
76967;DHT22;65904;52.278;20.972;2022-12-10T01:42:29;1.40;86.90
76967;DHT22;65904;52.278;20.972;2022-12-10T01:45:15;1.40;87.00
76967;DHT22;65904;52.278;20.972;2022-12-10T01:48:02;1.40;87.20
76967;DHT22;65904;52.278;20.972;2022-12-10T01:50:48;1.40;86.90
76967;DHT22;65904;52.278;20.972;2022-12-10T01:53:35;1.40;87.20
76967;DHT22;65904;52.278;20.972;2022-12-10T01:56:22;1.40;87.30
76967;DHT22;65904;52.278;20.972;2022-12-10T01:59:09;1.40;87.30
76967;DHT22;65904;52.278;20.972;2022-12-10T02:02:03;1.40;87.40
76967;DHT22;65904;52.278;20.972;2022-12-10T02:05:01;1.40;87.30
76967;DHT22;65904;52.278;20.972;2022-12-10T02:08:01;1.40;87.30
76967;DHT22;65904;52.278;20.972;2022-12-10T02:10:58;1.40;87.20
76967;DHT22;65904;52.278;20.972;2022-12-10T02:13:51;1.40;86.90
76967;DHT22;65904;52.278;20.972;2022-12-10T02:16:42;1.40;87.00
76967;DHT22;65904;52.278;20.972;2022-12-10T02:19:55;1.40;86.90
76967;DHT22;65904;52.278;20.972;2022-12-10T02:22:45;1.40;87.30
76967;DHT22;65904;52.278;20.972;2022-12-10T02:25:36;1.40;87.30
76967;DHT22;65904;52.278;20.972;2022-12-10T02:28:33;1.40;87.30
76967;DHT22;65904;52.278;20.972;2022-12-10T02:31:26;1.40;87.30
76967;DHT22;65904;52.278;20.972;2022-12-10T02:34:15;1.40;87.30
76967;DHT22;65904;52.278;20.972;2022-12-10T02:37:04;1.40;87.30
76967;DHT22;65904;52.278;20.972;2022-12-10T02:39:54;1.40;87.50
76967;DHT22;65904;52.278;20.972;2022-12-10T02:42:42;1.40;87.30
76967;DHT22;65904;52.278;20.972;2022-12-10T02:45:31;1.30;87.20
76967;DHT22;65904;52.278;20.972;2022-12-10T02:48:20;1.30;87.50
76967;DHT22;65904;52.278;20.972;2022-12-10T02:51:06;1.30;87.60
76967;DHT22;65904;52.278;20.972;2022-12-10T02:53:59;1.30;87.70
76967;DHT22;65904;52.278;20.972;2022-12-10T02:56:51;1.30;87.70
76967;DHT22;65904;52.278;20.972;2022-12-10T02:59:48;1.30;87.80
76967;DHT22;65904;52.278;20.972;2022-12-10T03:02:54;1.30;88.10
76967;DHT22;65904;52.278;20.972;2022-12-10T03:05:51;1.30;88.10
76967;DHT22;65904;52.278;20.972;2022-12-10T03:08:45;1.30;87.80
76967;DHT22;65904;52.278;20.972;2022-12-10T03:11:33;1.30;87.80
76967;DHT22;65904;52.278;20.972;2022-12-10T03:14:25;1.30;88.00
76967;DHT22;65904;52.278;20.972;2022-12-10T03:17:13;1.30;87.90
76967;DHT22;65904;52.278;20.972;2022-12-10T03:20:01;1.30;87.90
76967;DHT22;65904;52.278;20.972;2022-12-10T03:22:49;1.40;87.80
76967;DHT22;65904;52.278;20.972;2022-12-10T03:25:37;1.30;87.20
76967;DHT22;65904;52.278;20.972;2022-12-10T03:28:25;1.30;87.20
76967;DHT22;65904;52.278;20.972;2022-12-10T03:31:13;1.30;87.20
76967;DHT22;65904;52.278;20.972;2022-12-10T03:34:00;1.30;87.30
76967;DHT22;65904;52.278;20.972;2022-12-10T03:36:47;1.30;87.40
76967;DHT22;65904;52.278;20.972;2022-12-10T03:39:36;1.30;87.60
76967;DHT22;65904;52.278;20.972;2022-12-10T03:42:22;1.30;87.70
76967;DHT22;65904;52.278;20.972;2022-12-10T03:45:09;1.30;87.60
76967;DHT22;65904;52.278;20.972;2022-12-10T03:47:55;1.30;87.70
76967;DHT22;65904;52.278;20.972;2022-12-10T03:50:41;1.30;87.60
76967;DHT22;65904;52.278;20.972;2022-12-10T03:53:27;1.30;87.80
76967;DHT22;65904;52.278;20.972;2022-12-10T03:56:15;1.30;87.70
76967;DHT22;65904;52.278;20.972;2022-12-10T03:59:01;1.30;87.90
76967;DHT22;65904;52.278;20.972;2022-12-10T04:01:48;1.30;88.00
76967;DHT22;65904;52.278;20.972;2022-12-10T04:04:34;1.30;88.20
76967;DHT22;65904;52.278;20.972;2022-12-10T04:07:20;1.30;87.90
76967;DHT22;65904;52.278;20.972;2022-12-10T04:10:07;1.30;88.00
76967;DHT22;65904;52.278;20.972;2022-12-10T04:12:54;1.30;88.00
76967;DHT22;65904;52.278;20.972;2022-12-10T04:15:56;1.30;87.90
76967;DHT22;65904;52.278;20.972;2022-12-10T04:19:01;1.30;88.00
76967;DHT22;65904;52.278;20.972;2022-12-10T04:21:48;1.40;88.10
76967;DHT22;65904;52.278;20.972;2022-12-10T04:24:51;1.40;88.00
76967;DHT22;65904;52.278;20.972;2022-12-10T04:28:08;1.30;87.80
76967;DHT22;65904;52.278;20.972;2022-12-10T04:30:54;1.40;87.60
76967;DHT22;65904;52.278;20.972;2022-12-10T04:33:41;1.30;87.50
76967;DHT22;65904;52.278;20.972;2022-12-10T04:36:26;1.30;87.50
76967;DHT22;65904;52.278;20.972;2022-12-10T04:39:13;1.30;87.50
76967;DHT22;65904;52.278;20.972;2022-12-10T04:42:01;1.30;87.60
76967;DHT22;65904;52.278;20.972;2022-12-10T04:44:48;1.30;87.80
76967;DHT22;65904;52.278;20.972;2022-12-10T04:47:35;1.30;87.90
76967;DHT22;65904;52.278;20.972;2022-12-10T04:50:21;1.30;88.20
76967;DHT22;65904;52.278;20.972;2022-12-10T04:53:07;1.30;88.20
76967;DHT22;65904;52.278;20.972;2022-12-10T04:55:53;1.20;88.20
76967;DHT22;65904;52.278;20.972;2022-12-10T04:58:39;1.20;88.20
76967;DHT22;65904;52.278;20.972;2022-12-10T05:01:27;1.20;88.30
76967;DHT22;65904;52.278;20.972;2022-12-10T05:04:16;1.20;88.40
76967;DHT22;65904;52.278;20.972;2022-12-10T05:07:03;1.20;88.30
76967;DHT22;65904;52.278;20.972;2022-12-10T05:09:49;1.20;88.40
76967;DHT22;65904;52.278;20.972;2022-12-10T05:12:35;1.20;88.50
76967;DHT22;65904;52.278;20.972;2022-12-10T05:15:21;1.20;88.30
76967;DHT22;65904;52.278;20.972;2022-12-10T05:18:09;1.20;88.10
76967;DHT22;65904;52.278;20.972;2022-12-10T05:20:57;1.30;88.10
76967;DHT22;65904;52.278;20.972;2022-12-10T05:23:46;1.30;88.00
76967;DHT22;65904;52.278;20.972;2022-12-10T05:26:31;1.20;87.90
76967;DHT22;65904;52.278;20.972;2022-12-10T05:29:18;1.20;87.20
76967;DHT22;65904;52.278;20.972;2022-12-10T05:32:04;1.20;87.30
76967;DHT22;65904;52.278;20.972;2022-12-10T05:34:52;1.20;87.20
76967;DHT22;65904;52.278;20.972;2022-12-10T05:37:38;1.20;87.10
76967;DHT22;65904;52.278;20.972;2022-12-10T05:40:24;1.20;87.10
76967;DHT22;65904;52.278;20.972;2022-12-10T05:43:10;1.20;87.40
76967;DHT22;65904;52.278;20.972;2022-12-10T05:45:59;1.20;87.60
76967;DHT22;65904;52.278;20.972;2022-12-10T05:48:46;1.20;87.50
76967;DHT22;65904;52.278;20.972;2022-12-10T05:51:36;1.20;87.30
76967;DHT22;65904;52.278;20.972;2022-12-10T05:54:23;1.20;87.60
76967;DHT22;65904;52.278;20.972;2022-12-10T05:57:09;1.10;87.40
76967;DHT22;65904;52.278;20.972;2022-12-10T05:59:55;1.10;87.50
76967;DHT22;65904;52.278;20.972;2022-12-10T06:02:41;1.10;87.70
76967;DHT22;65904;52.278;20.972;2022-12-10T06:05:27;1.00;87.70
76967;DHT22;65904;52.278;20.972;2022-12-10T06:08:15;1.00;87.60
76967;DHT22;65904;52.278;20.972;2022-12-10T06:11:01;1.00;87.60
76967;DHT22;65904;52.278;20.972;2022-12-10T06:13:48;1.00;87.50
76967;DHT22;65904;52.278;20.972;2022-12-10T06:16:34;1.00;87.40
76967;DHT22;65904;52.278;20.972;2022-12-10T06:19:20;1.00;87.40
76967;DHT22;65904;52.278;20.972;2022-12-10T06:22:06;1.00;87.10
76967;DHT22;65904;52.278;20.972;2022-12-10T06:24:54;1.00;86.90
76967;DHT22;65904;52.278;20.972;2022-12-10T06:27:40;1.00;86.90
76967;DHT22;65904;52.278;20.972;2022-12-10T06:30:26;1.00;86.90
76967;DHT22;65904;52.278;20.972;2022-12-10T06:33:12;1.00;86.90
76967;DHT22;65904;52.278;20.972;2022-12-10T06:35:59;1.00;86.90
76967;DHT22;65904;52.278;20.972;2022-12-10T06:38:45;0.90;87.00
76967;DHT22;65904;52.278;20.972;2022-12-10T06:41:33;0.90;87.30
76967;DHT22;65904;52.278;20.972;2022-12-10T06:44:19;0.90;87.60
76967;DHT22;65904;52.278;20.972;2022-12-10T06:47:05;0.90;87.60
76967;DHT22;65904;52.278;20.972;2022-12-10T06:49:51;0.90;87.60
76967;DHT22;65904;52.278;20.972;2022-12-10T06:52:38;0.90;87.70
76967;DHT22;65904;52.278;20.972;2022-12-10T06:55:24;0.90;87.80
76967;DHT22;65904;52.278;20.972;2022-12-10T06:58:11;0.90;87.90
76967;DHT22;65904;52.278;20.972;2022-12-10T07:01:02;1.00;88.10
76967;DHT22;65904;52.278;20.972;2022-12-10T07:03:49;1.00;88.10
76967;DHT22;65904;52.278;20.972;2022-12-10T07:06:35;1.00;88.10
76967;DHT22;65904;52.278;20.972;2022-12-10T07:09:21;1.00;88.10
76967;DHT22;65904;52.278;20.972;2022-12-10T07:12:08;1.00;88.30
76967;DHT22;65904;52.278;20.972;2022-12-10T07:14:56;1.10;88.10
76967;DHT22;65904;52.278;20.972;2022-12-10T07:17:42;1.10;88.00
76967;DHT22;65904;52.278;20.972;2022-12-10T07:20:30;1.10;87.80
76967;DHT22;65904;52.278;20.972;2022-12-10T07:23:16;1.10;87.80
76967;DHT22;65904;52.278;20.972;2022-12-10T07:26:02;1.10;87.80
76967;DHT22;65904;52.278;20.972;2022-12-10T07:28:48;1.10;87.90
76967;DHT22;65904;52.278;20.972;2022-12-10T07:31:39;1.10;87.90
76967;DHT22;65904;52.278;20.972;2022-12-10T07:34:25;1.10;87.80
76967;DHT22;65904;52.278;20.972;2022-12-10T07:37:12;1.20;88.00
76967;DHT22;65904;52.278;20.972;2022-12-10T07:39:58;1.20;88.20
76967;DHT22;65904;52.278;20.972;2022-12-10T07:42:44;1.20;87.80
76967;DHT22;65904;52.278;20.972;2022-12-10T07:45:30;1.30;87.50
76967;DHT22;65904;52.278;20.972;2022-12-10T07:48:18;1.30;87.70
76967;DHT22;65904;52.278;20.972;2022-12-10T07:51:04;1.30;88.10
76967;DHT22;65904;52.278;20.972;2022-12-10T07:53:52;1.30;87.20
76967;DHT22;65904;52.278;20.972;2022-12-10T07:56:38;1.30;87.20
76967;DHT22;65904;52.278;20.972;2022-12-10T07:59:24;1.30;87.20
76967;DHT22;65904;52.278;20.972;2022-12-10T08:02:10;1.40;87.30
76967;DHT22;65904;52.278;20.972;2022-12-10T08:05:00;1.40;87.20
76967;DHT22;65904;52.278;20.972;2022-12-10T08:07:46;1.30;87.20
76967;DHT22;65904;52.278;20.972;2022-12-10T08:10:33;1.30;87.90
76967;DHT22;65904;52.278;20.972;2022-12-10T08:13:19;1.30;87.40
76967;DHT22;65904;52.278;20.972;2022-12-10T08:16:08;1.40;87.50
76967;DHT22;65904;52.278;20.972;2022-12-10T08:18:57;1.40;87.30
76967;DHT22;65904;52.278;20.972;2022-12-10T08:21:45;1.40;87.10
76967;DHT22;65904;52.278;20.972;2022-12-10T08:24:31;1.40;87.20
76967;DHT22;65904;52.278;20.972;2022-12-10T08:27:17;1.40;87.30
76967;DHT22;65904;52.278;20.972;2022-12-10T08:30:04;1.40;87.30
76967;DHT22;65904;52.278;20.972;2022-12-10T08:32:50;1.40;87.30
76967;DHT22;65904;52.278;20.972;2022-12-10T08:35:36;1.40;87.30
76967;DHT22;65904;52.278;20.972;2022-12-10T08:38:24;1.40;87.40
76967;DHT22;65904;52.278;20.972;2022-12-10T08:41:12;1.40;87.30
76967;DHT22;65904;52.278;20.972;2022-12-10T08:43:58;1.40;87.50
76967;DHT22;65904;52.278;20.972;2022-12-10T08:46:44;1.40;87.30
76967;DHT22;65904;52.278;20.972;2022-12-10T08:49:31;1.40;87.30
76967;DHT22;65904;52.278;20.972;2022-12-10T08:52:17;1.40;87.30
76967;DHT22;65904;52.278;20.972;2022-12-10T08:55:05;1.40;87.40
76967;DHT22;65904;52.278;20.972;2022-12-10T08:57:51;1.60;87.50
76967;DHT22;65904;52.278;20.972;2022-12-10T09:00:37;1.60;86.90
76967;DHT22;65904;52.278;20.972;2022-12-10T09:03:23;1.60;86.80
76967;DHT22;65904;52.278;20.972;2022-12-10T09:06:11;1.60;86.70
76967;DHT22;65904;52.278;20.972;2022-12-10T09:08:58;1.60;86.90
76967;DHT22;65904;52.278;20.972;2022-12-10T09:11:45;1.50;86.90
76967;DHT22;65904;52.278;20.972;2022-12-10T09:14:32;1.60;87.10
76967;DHT22;65904;52.278;20.972;2022-12-10T09:17:18;1.60;87.90
76967;DHT22;65904;52.278;20.972;2022-12-10T09:20:05;1.60;87.10
76967;DHT22;65904;52.278;20.972;2022-12-10T09:22:51;1.60;87.10
76967;DHT22;65904;52.278;20.972;2022-12-10T09:25:38;1.50;87.10
76967;DHT22;65904;52.278;20.972;2022-12-10T09:28:26;1.50;87.10
76967;DHT22;65904;52.278;20.972;2022-12-10T09:31:13;1.60;87.00
76967;DHT22;65904;52.278;20.972;2022-12-10T09:33:59;1.60;87.20
76967;DHT22;65904;52.278;20.972;2022-12-10T09:36:45;1.60;87.40
76967;DHT22;65904;52.278;20.972;2022-12-10T09:39:31;1.60;87.40
76967;DHT22;65904;52.278;20.972;2022-12-10T09:42:28;1.60;87.50
76967;DHT22;65904;52.278;20.972;2022-12-10T09:45:20;1.60;87.40
76967;DHT22;65904;52.278;20.972;2022-12-10T09:48:16;1.60;87.20
76967;DHT22;65904;52.278;20.972;2022-12-10T09:51:09;1.70;87.10
76967;DHT22;65904;52.278;20.972;2022-12-10T09:53:57;1.70;87.10
76967;DHT22;65904;52.278;20.972;2022-12-10T09:56:44;1.70;86.80
76967;DHT22;65904;52.278;20.972;2022-12-10T09:59:34;1.70;87.60
76967;DHT22;65904;52.278;20.972;2022-12-10T10:02:25;1.80;87.00
76967;DHT22;65904;52.278;20.972;2022-12-10T10:05:18;1.80;86.80
76967;DHT22;65904;52.278;20.972;2022-12-10T10:08:06;1.80;86.60
76967;DHT22;65904;52.278;20.972;2022-12-10T10:10:53;1.90;86.30
76967;DHT22;65904;52.278;20.972;2022-12-10T10:13:41;1.90;86.10
76967;DHT22;65904;52.278;20.972;2022-12-10T10:16:33;1.90;86.10
76967;DHT22;65904;52.278;20.972;2022-12-10T10:19:25;1.90;86.30
76967;DHT22;65904;52.278;20.972;2022-12-10T10:22:12;1.90;86.00
76967;DHT22;65904;52.278;20.972;2022-12-10T10:24:58;2.00;85.90
76967;DHT22;65904;52.278;20.972;2022-12-10T10:27:47;2.00;85.80
76967;DHT22;65904;52.278;20.972;2022-12-10T10:30:33;2.00;85.80
76967;DHT22;65904;52.278;20.972;2022-12-10T10:33:19;2.10;85.20
76967;DHT22;65904;52.278;20.972;2022-12-10T10:36:07;2.10;85.40
76967;DHT22;65904;52.278;20.972;2022-12-10T10:38:54;2.10;85.50
76967;DHT22;65904;52.278;20.972;2022-12-10T10:41:40;2.10;85.10
76967;DHT22;65904;52.278;20.972;2022-12-10T10:44:28;2.00;86.00
76967;DHT22;65904;52.278;20.972;2022-12-10T10:47:27;2.00;85.00
76967;DHT22;65904;52.278;20.972;2022-12-10T10:50:23;2.00;85.40
76967;DHT22;65904;52.278;20.972;2022-12-10T10:53:27;2.00;85.40
76967;DHT22;65904;52.278;20.972;2022-12-10T10:56:16;2.00;85.20
76967;DHT22;65904;52.278;20.972;2022-12-10T10:59:05;2.00;85.40
76967;DHT22;65904;52.278;20.972;2022-12-10T11:01:53;2.00;85.60
76967;DHT22;65904;52.278;20.972;2022-12-10T11:04:46;2.10;85.90
76967;DHT22;65904;52.278;20.972;2022-12-10T11:07:35;2.10;85.60
76967;DHT22;65904;52.278;20.972;2022-12-10T11:10:25;2.20;85.50
76967;DHT22;65904;52.278;20.972;2022-12-10T11:13:19;2.20;85.20
76967;DHT22;65904;52.278;20.972;2022-12-10T11:16:16;2.20;85.30
76967;DHT22;65904;52.278;20.972;2022-12-10T11:19:04;2.20;85.20
76967;DHT22;65904;52.278;20.972;2022-12-10T11:21:50;2.20;84.70
76967;DHT22;65904;52.278;20.972;2022-12-10T11:24:36;2.20;84.40
76967;DHT22;65904;52.278;20.972;2022-12-10T11:27:41;2.20;84.50
76967;DHT22;65904;52.278;20.972;2022-12-10T11:30:33;2.10;84.30
76967;DHT22;65904;52.278;20.972;2022-12-10T11:33:30;2.10;84.90
76967;DHT22;65904;52.278;20.972;2022-12-10T11:36:27;2.00;85.20
76967;DHT22;65904;52.278;20.972;2022-12-10T11:39:27;2.10;85.10
76967;DHT22;65904;52.278;20.972;2022-12-10T11:42:24;2.00;84.90
76967;DHT22;65904;52.278;20.972;2022-12-10T11:45:22;2.00;84.70
76967;DHT22;65904;52.278;20.972;2022-12-10T11:48:19;2.00;85.00
76967;DHT22;65904;52.278;20.972;2022-12-10T11:51:10;2.00;84.90
76967;DHT22;65904;52.278;20.972;2022-12-10T11:54:06;2.00;84.80
76967;DHT22;65904;52.278;20.972;2022-12-10T11:57:02;2.00;84.40
76967;DHT22;65904;52.278;20.972;2022-12-10T11:59:55;2.00;84.10
76967;DHT22;65904;52.278;20.972;2022-12-10T12:03:09;1.90;84.20
76967;DHT22;65904;52.278;20.972;2022-12-10T12:06:06;1.90;84.80
76967;DHT22;65904;52.278;20.972;2022-12-10T12:09:02;2.00;85.00
76967;DHT22;65904;52.278;20.972;2022-12-10T12:12:08;1.90;84.90
76967;DHT22;65904;52.278;20.972;2022-12-10T12:14:59;1.90;85.10
76967;DHT22;65904;52.278;20.972;2022-12-10T12:17:50;1.90;85.50
76967;DHT22;65904;52.278;20.972;2022-12-10T12:20:44;1.90;85.20
76967;DHT22;65904;52.278;20.972;2022-12-10T12:23:36;1.90;84.90
76967;DHT22;65904;52.278;20.972;2022-12-10T12:26:27;1.80;84.20
76967;DHT22;65904;52.278;20.972;2022-12-10T12:29:19;1.80;84.40
76967;DHT22;65904;52.278;20.972;2022-12-10T12:32:12;1.80;84.80
76967;DHT22;65904;52.278;20.972;2022-12-10T12:35:03;1.80;85.10
76967;DHT22;65904;52.278;20.972;2022-12-10T12:37:57;1.80;84.80
76967;DHT22;65904;52.278;20.972;2022-12-10T12:40:48;1.80;84.80
76967;DHT22;65904;52.278;20.972;2022-12-10T12:43:44;1.90;85.00
76967;DHT22;65904;52.278;20.972;2022-12-10T12:46:37;1.90;84.90
76967;DHT22;65904;52.278;20.972;2022-12-10T12:49:27;1.90;84.80
76967;DHT22;65904;52.278;20.972;2022-12-10T12:52:25;1.90;84.70
76967;DHT22;65904;52.278;20.972;2022-12-10T12:55:17;1.90;84.40
76967;DHT22;65904;52.278;20.972;2022-12-10T12:58:15;1.90;84.40
76967;DHT22;65904;52.278;20.972;2022-12-10T13:01:12;1.90;84.60
76967;DHT22;65904;52.278;20.972;2022-12-10T13:04:01;1.90;84.40
76967;DHT22;65904;52.278;20.972;2022-12-10T13:07:09;1.80;84.50
76967;DHT22;65904;52.278;20.972;2022-12-10T13:10:17;1.80;84.70
76967;DHT22;65904;52.278;20.972;2022-12-10T13:13:22;1.80;84.80
76967;DHT22;65904;52.278;20.972;2022-12-10T13:16:45;1.80;84.80
76967;DHT22;65904;52.278;20.972;2022-12-10T13:19:34;1.80;85.20
76967;DHT22;65904;52.278;20.972;2022-12-10T13:22:42;1.80;84.80
76967;DHT22;65904;52.278;20.972;2022-12-10T13:25:41;1.90;84.40
76967;DHT22;65904;52.278;20.972;2022-12-10T13:28:32;1.80;84.30
76967;DHT22;65904;52.278;20.972;2022-12-10T13:31:37;1.80;84.40
76967;DHT22;65904;52.278;20.972;2022-12-10T13:34:30;1.80;84.20
76967;DHT22;65904;52.278;20.972;2022-12-10T13:37:27;1.80;84.50
76967;DHT22;65904;52.278;20.972;2022-12-10T13:40:24;1.80;84.50
76967;DHT22;65904;52.278;20.972;2022-12-10T13:43:20;1.80;84.80
76967;DHT22;65904;52.278;20.972;2022-12-10T13:46:31;1.80;84.60
76967;DHT22;65904;52.278;20.972;2022-12-10T13:49:20;1.80;84.60
76967;DHT22;65904;52.278;20.972;2022-12-10T13:52:06;1.80;84.40
76967;DHT22;65904;52.278;20.972;2022-12-10T13:55:12;1.80;84.30
76967;DHT22;65904;52.278;20.972;2022-12-10T13:58:23;1.80;84.10
76967;DHT22;65904;52.278;20.972;2022-12-10T14:01:15;1.70;84.20
76967;DHT22;65904;52.278;20.972;2022-12-10T14:04:15;1.70;83.70
76967;DHT22;65904;52.278;20.972;2022-12-10T14:07:07;1.70;83.60
76967;DHT22;65904;52.278;20.972;2022-12-10T14:09:55;1.60;83.60
76967;DHT22;65904;52.278;20.972;2022-12-10T14:12:44;1.70;83.90
76967;DHT22;65904;52.278;20.972;2022-12-10T14:15:31;1.70;83.40
76967;DHT22;65904;52.278;20.972;2022-12-10T14:18:21;1.70;83.30
76967;DHT22;65904;52.278;20.972;2022-12-10T14:21:10;1.70;83.30
76967;DHT22;65904;52.278;20.972;2022-12-10T14:23:59;1.70;83.30
76967;DHT22;65904;52.278;20.972;2022-12-10T14:26:45;1.60;83.10
76967;DHT22;65904;52.278;20.972;2022-12-10T14:29:31;1.60;83.60
76967;DHT22;65904;52.278;20.972;2022-12-10T14:32:20;1.60;83.90
76967;DHT22;65904;52.278;20.972;2022-12-10T14:35:12;1.50;83.90
76967;DHT22;65904;52.278;20.972;2022-12-10T14:38:00;1.60;84.00
76967;DHT22;65904;52.278;20.972;2022-12-10T14:40:47;1.50;83.60
76967;DHT22;65904;52.278;20.972;2022-12-10T14:43:36;1.50;84.30
76967;DHT22;65904;52.278;20.972;2022-12-10T14:46:24;1.50;84.10
76967;DHT22;65904;52.278;20.972;2022-12-10T14:49:13;1.50;83.30
76967;DHT22;65904;52.278;20.972;2022-12-10T14:52:01;1.40;83.10
76967;DHT22;65904;52.278;20.972;2022-12-10T14:58:53;1.30;83.20
76967;DHT22;65904;52.278;20.972;2022-12-10T15:01:49;1.30;83.30
76967;DHT22;65904;52.278;20.972;2022-12-10T15:05:01;1.20;83.30
76967;DHT22;65904;52.278;20.972;2022-12-10T15:07:54;1.20;83.70
76967;DHT22;65904;52.278;20.972;2022-12-10T15:10:43;1.20;83.40
76967;DHT22;65904;52.278;20.972;2022-12-10T15:13:34;1.20;83.00
76967;DHT22;65904;52.278;20.972;2022-12-10T15:16:30;1.20;83.20
76967;DHT22;65904;52.278;20.972;2022-12-10T15:19:20;1.20;83.00
76967;DHT22;65904;52.278;20.972;2022-12-10T15:22:18;1.20;83.30
76967;DHT22;65904;52.278;20.972;2022-12-10T15:25:14;1.20;83.20
76967;DHT22;65904;52.278;20.972;2022-12-10T15:28:20;1.20;83.40
76967;DHT22;65904;52.278;20.972;2022-12-10T15:31:12;1.20;83.20
76967;DHT22;65904;52.278;20.972;2022-12-10T15:34:01;1.10;83.30
76967;DHT22;65904;52.278;20.972;2022-12-10T15:36:53;1.10;83.30
76967;DHT22;65904;52.278;20.972;2022-12-10T15:39:45;1.10;83.10
76967;DHT22;65904;52.278;20.972;2022-12-10T15:42:41;1.10;83.50
76967;DHT22;65904;52.278;20.972;2022-12-10T15:45:38;1.10;83.60
76967;DHT22;65904;52.278;20.972;2022-12-10T15:48:26;1.10;83.50
76967;DHT22;65904;52.278;20.972;2022-12-10T15:51:15;1.20;83.20
76967;DHT22;65904;52.278;20.972;2022-12-10T15:54:14;1.10;82.70
76967;DHT22;65904;52.278;20.972;2022-12-10T15:57:12;1.10;82.70
76967;DHT22;65904;52.278;20.972;2022-12-10T15:59:59;1.00;82.70
76967;DHT22;65904;52.278;20.972;2022-12-10T16:02:59;1.10;82.70
76967;DHT22;65904;52.278;20.972;2022-12-10T16:05:47;1.00;82.40
76967;DHT22;65904;52.278;20.972;2022-12-10T16:08:36;1.00;82.70
76967;DHT22;65904;52.278;20.972;2022-12-10T16:11:22;1.00;82.40
76967;DHT22;65904;52.278;20.972;2022-12-10T16:14:09;1.00;82.90
76967;DHT22;65904;52.278;20.972;2022-12-10T16:16:55;0.90;82.70
76967;DHT22;65904;52.278;20.972;2022-12-10T16:19:42;1.00;82.60
76967;DHT22;65904;52.278;20.972;2022-12-10T16:22:29;0.90;83.00
76967;DHT22;65904;52.278;20.972;2022-12-10T16:25:17;0.90;83.20
76967;DHT22;65904;52.278;20.972;2022-12-10T16:28:04;1.00;83.20
76967;DHT22;65904;52.278;20.972;2022-12-10T16:30:52;1.00;82.70
76967;DHT22;65904;52.278;20.972;2022-12-10T16:33:39;1.00;82.70
76967;DHT22;65904;52.278;20.972;2022-12-10T16:36:25;1.00;82.80
76967;DHT22;65904;52.278;20.972;2022-12-10T16:39:11;1.00;82.80
76967;DHT22;65904;52.278;20.972;2022-12-10T16:42:00;1.10;82.80
76967;DHT22;65904;52.278;20.972;2022-12-10T16:44:46;1.00;82.70
76967;DHT22;65904;52.278;20.972;2022-12-10T16:47:32;1.00;82.50
76967;DHT22;65904;52.278;20.972;2022-12-10T16:50:20;1.00;83.10
76967;DHT22;65904;52.278;20.972;2022-12-10T16:53:14;1.00;82.50
76967;DHT22;65904;52.278;20.972;2022-12-10T16:56:01;1.00;82.40
76967;DHT22;65904;52.278;20.972;2022-12-10T16:58:49;1.00;82.50
76967;DHT22;65904;52.278;20.972;2022-12-10T17:01:35;1.00;82.60
76967;DHT22;65904;52.278;20.972;2022-12-10T17:04:22;1.00;82.70
76967;DHT22;65904;52.278;20.972;2022-12-10T17:07:08;1.00;82.60
76967;DHT22;65904;52.278;20.972;2022-12-10T17:09:55;0.90;82.30
76967;DHT22;65904;52.278;20.972;2022-12-10T17:12:41;0.90;82.40
76967;DHT22;65904;52.278;20.972;2022-12-10T17:15:29;0.90;82.70
76967;DHT22;65904;52.278;20.972;2022-12-10T17:18:22;0.90;82.60
76967;DHT22;65904;52.278;20.972;2022-12-10T17:21:15;0.80;82.80
76967;DHT22;65904;52.278;20.972;2022-12-10T17:24:26;0.80;82.70
76967;DHT22;65904;52.278;20.972;2022-12-10T17:27:16;0.80;83.00
76967;DHT22;65904;52.278;20.972;2022-12-10T17:30:04;0.90;83.10
76967;DHT22;65904;52.278;20.972;2022-12-10T17:32:55;0.90;83.20
76967;DHT22;65904;52.278;20.972;2022-12-10T17:35:43;0.80;83.10
76967;DHT22;65904;52.278;20.972;2022-12-10T17:43:03;0.80;83.20
76967;DHT22;65904;52.278;20.972;2022-12-10T17:45:49;0.80;83.40
76967;DHT22;65904;52.278;20.972;2022-12-10T17:49:02;0.80;83.80
76967;DHT22;65904;52.278;20.972;2022-12-10T17:51:49;0.80;83.80
76967;DHT22;65904;52.278;20.972;2022-12-10T17:54:36;0.80;83.70
76967;DHT22;65904;52.278;20.972;2022-12-10T17:57:47;0.80;83.40
76967;DHT22;65904;52.278;20.972;2022-12-10T18:04:13;0.80;83.40
76967;DHT22;65904;52.278;20.972;2022-12-10T18:06:59;0.80;83.40